Time;durP1;ratioP1;P1;durP2;ratioP2;P2;SDS_P1;SDS_P2;PMS_P1;PMS_P2;Temp;Humidity;BMP_temperature;BMP_pressure;BME280_temperature;BME280_humidity;BME280_pressure;Samples;Min_cycle;Max_cycle;Signal;HPM_P1;HPM_P2
2023/03/01 00:00:23;;;;;;;10.30;10.00;;;-0.90;99.90;;;;;;5110078;28;20340;-81
2023/03/01 00:02:51;;;;;;;10.30;10.00;;;-1.00;99.90;;;;;;5110066;28;20260;-81
2023/03/01 00:05:19;;;;;;;10.27;9.97;;;-1.00;99.90;;;;;;5113181;27;20260;-80
2023/03/01 00:07:51;;;;;;;10.37;10.07;;;-1.00;99.90;;;;;;5111135;28;20213;-80
2023/03/01 00:10:20;;;;;;;10.40;10.10;;;-1.00;99.90;;;;;;5112949;28;20238;-80
2023/03/01 00:12:49;;;;;;;10.27;9.97;;;-1.00;99.90;;;;;;5116269;28;20237;-81
2023/03/01 00:15:27;;;;;;;10.30;10.00;;;-1.00;99.90;;;;;;5105995;28;20217;-80
2023/03/01 00:17:57;;;;;;;10.13;9.83;;;-0.90;99.90;;;;;;5112995;28;20232;-80
2023/03/01 00:20:26;;;;;;;10.20;9.90;;;-0.90;99.90;;;;;;5112333;28;20261;-80
2023/03/01 00:22:56;;;;;;;10.37;10.07;;;-0.80;99.90;;;;;;5111514;28;20301;-80
2023/03/01 00:25:26;;;;;;;10.07;9.77;;;-0.80;99.90;;;;;;5116075;28;20244;-81
2023/03/01 00:27:55;;;;;;;10.30;10.00;;;-0.80;99.90;;;;;;5118455;28;20244;-80
2023/03/01 00:30:27;;;;;;;10.23;9.93;;;-0.80;99.90;;;;;;5115846;28;20267;-80
2023/03/01 00:32:54;;;;;;;9.90;9.60;;;-0.90;99.90;;;;;;5111707;28;21105;-80
2023/03/01 00:35:23;;;;;;;10.20;9.90;;;-0.90;99.90;;;;;;5110208;28;20244;-80
2023/03/01 00:37:57;;;;;;;10.30;10.00;;;-0.90;99.90;;;;;;5110181;28;20229;-80
2023/03/01 00:40:25;;;;;;;10.30;10.00;;;-0.80;99.90;;;;;;5108157;28;20324;-80
2023/03/01 00:42:52;;;;;;;10.53;10.23;;;-0.70;99.90;;;;;;5109515;28;20312;-80
2023/03/01 00:45:20;;;;;;;10.33;10.03;;;-0.70;99.90;;;;;;5109055;28;20320;-80
2023/03/01 00:47:54;;;;;;;10.30;10.00;;;-0.70;99.90;;;;;;5094617;28;20289;-81
2023/03/01 00:50:22;;;;;;;10.57;10.27;;;-0.90;99.90;;;;;;5090873;28;21027;-81
2023/03/01 00:52:58;;;;;;;10.27;9.97;;;-1.10;99.90;;;;;;5108338;28;20293;-81
2023/03/01 00:55:29;;;;;;;10.60;10.30;;;-1.20;99.90;;;;;;5106505;28;20227;-82
2023/03/01 00:57:56;;;;;;;10.50;10.20;;;-1.20;99.90;;;;;;5104686;28;20226;-81
2023/03/01 01:00:27;;;;;;;10.17;9.87;;;-1.10;99.90;;;;;;5103056;28;20289;-80
2023/03/01 01:02:59;;;;;;;10.37;10.07;;;-1.10;99.90;;;;;;5113128;28;20237;-81
2023/03/01 01:05:26;;;;;;;10.30;10.00;;;-1.20;99.90;;;;;;5113088;28;20259;-80
2023/03/01 01:07:55;;;;;;;10.30;10.00;;;-1.10;99.90;;;;;;5105751;28;20291;-82
2023/03/01 01:10:23;;;;;;;10.10;9.80;;;-1.10;99.90;;;;;;5110599;28;20232;-81
2023/03/01 01:12:51;;;;;;;10.23;9.93;;;-1.10;99.90;;;;;;5110672;28;20231;-81
2023/03/01 01:15:23;;;;;;;10.10;9.80;;;-1.30;99.90;;;;;;5109402;28;20232;-81
2023/03/01 01:17:52;;;;;;;10.17;9.87;;;-1.20;99.90;;;;;;5099657;28;20222;-81
2023/03/01 01:20:27;;;;;;;10.07;9.77;;;-1.20;99.90;;;;;;5107190;28;20259;-81
2023/03/01 01:23:00;;;;;;;9.87;9.57;;;-1.10;99.90;;;;;;5107615;28;20299;-81
2023/03/01 01:25:28;;;;;;;10.07;9.77;;;-1.20;99.90;;;;;;5099101;28;20236;-81
2023/03/01 01:27:56;;;;;;;9.97;9.67;;;-1.20;99.90;;;;;;5107120;28;20267;-81
2023/03/01 01:30:28;;;;;;;10.10;9.80;;;-1.40;99.90;;;;;;5107546;28;20325;-81
2023/03/01 01:32:56;;;;;;;10.57;10.27;;;-1.40;99.90;;;;;;5107708;28;20258;-81
2023/03/01 01:35:27;;;;;;;10.00;9.70;;;-1.50;99.90;;;;;;5098874;28;20244;-81
2023/03/01 01:37:57;;;;;;;10.07;9.77;;;-1.60;99.90;;;;;;5107480;28;20242;-81
2023/03/01 01:40:26;;;;;;;10.23;9.93;;;-1.70;99.90;;;;;;5107800;28;20241;-81
2023/03/01 01:42:53;;;;;;;10.47;10.17;;;-1.80;99.90;;;;;;5107714;28;20228;-81
2023/03/01 01:45:34;;;;;;;10.20;9.90;;;-1.80;99.90;;;;;;5106439;28;20259;-80
2023/03/01 01:48:08;;;;;;;10.37;10.07;;;-1.90;99.90;;;;;;5107615;28;20218;-81
2023/03/01 01:50:44;;;;;;;10.50;10.20;;;-1.90;99.90;;;;;;5106993;28;20314;-81
2023/03/01 01:53:23;;;;;;;10.23;9.93;;;-1.80;99.90;;;;;;5106542;28;20226;-81
2023/03/01 01:55:59;;;;;;;9.83;9.53;;;-1.90;99.90;;;;;;5106548;28;20326;-81
2023/03/01 01:58:31;;;;;;;10.20;9.90;;;-1.90;99.90;;;;;;5108536;28;20234;-81
2023/03/01 02:01:00;;;;;;;10.13;9.83;;;-1.90;99.90;;;;;;5099075;28;20243;-81
2023/03/01 02:03:37;;;;;;;10.27;9.97;;;-1.90;99.90;;;;;;5106544;28;20259;-81
2023/03/01 02:06:28;;;;;;;10.00;9.70;;;-1.90;99.90;;;;;;5107349;28;20305;-81
2023/03/01 02:09:00;;;;;;;10.23;9.93;;;-2.00;99.90;;;;;;5106556;28;20221;-80
2023/03/01 02:11:31;;;;;;;10.10;9.80;;;-2.00;99.90;;;;;;5110463;28;20353;-79
2023/03/01 02:13:59;;;;;;;10.30;10.00;;;-2.00;99.90;;;;;;5111261;28;20286;-79
2023/03/01 02:16:30;;;;;;;10.00;9.70;;;-2.00;99.90;;;;;;5110566;28;20218;-79
2023/03/01 02:19:00;;;;;;;10.03;9.73;;;-1.90;99.90;;;;;;5110904;28;20278;-80
2023/03/01 02:21:40;;;;;;;10.03;9.73;;;-1.90;99.90;;;;;;5110832;28;20303;-80
2023/03/01 02:24:19;;;;;;;9.80;9.50;;;-1.90;99.90;;;;;;5111875;28;20299;-80
2023/03/01 02:26:55;;;;;;;9.70;9.40;;;-1.90;99.90;;;;;;5106439;28;20232;-80
2023/03/01 02:29:34;;;;;;;10.07;9.77;;;-1.80;99.90;;;;;;5109441;28;20229;-80
2023/03/01 02:32:04;;;;;;;9.70;9.40;;;-1.80;99.90;;;;;;5108779;28;20238;-80
2023/03/01 02:34:33;;;;;;;9.80;9.50;;;-1.80;99.90;;;;;;5115561;28;20243;-80
2023/03/01 02:37:04;;;;;;;9.60;9.30;;;-1.70;99.90;;;;;;5114912;28;20231;-80
2023/03/01 02:39:41;;;;;;;9.73;9.43;;;-1.70;99.90;;;;;;5114194;28;20288;-80
2023/03/01 02:42:18;;;;;;;10.00;9.70;;;-1.70;99.90;;;;;;5112052;28;20229;-80
2023/03/01 02:44:50;;;;;;;9.83;9.53;;;-1.70;99.90;;;;;;5117947;28;20325;-79
2023/03/01 02:47:18;;;;;;;9.77;9.47;;;-1.70;99.90;;;;;;5110724;28;20245;-80
2023/03/01 02:49:46;;;;;;;9.87;9.57;;;-1.70;99.90;;;;;;5118015;28;20245;-80
2023/03/01 02:52:44;;;;;;;9.80;9.50;;;-1.70;99.90;;;;;;5117892;28;20243;-80
2023/03/01 02:55:15;;;;;;;9.87;9.57;;;-1.60;99.90;;;;;;5118514;28;20213;-80
2023/03/01 02:57:50;;;;;;;9.80;9.50;;;-1.50;99.90;;;;;;5117119;28;20222;-80
2023/03/01 03:00:28;;;;;;;9.50;9.20;;;-1.50;99.90;;;;;;5114819;28;20287;-80
2023/03/01 03:02:57;;;;;;;9.47;9.17;;;-1.60;99.90;;;;;;5118723;28;20247;-80
2023/03/01 03:05:28;;;;;;;9.70;9.40;;;-1.60;99.90;;;;;;5116882;28;20235;-80
2023/03/01 03:07:56;;;;;;;9.90;9.60;;;-1.70;99.90;;;;;;5117422;28;20228;-80
2023/03/01 03:10:27;;;;;;;9.93;9.63;;;-1.70;99.90;;;;;;5119581;28;20250;-79
2023/03/01 03:12:56;;;;;;;9.60;9.30;;;-1.70;99.90;;;;;;5120202;28;20246;-80
2023/03/01 03:15:28;;;;;;;9.70;9.40;;;-1.70;99.90;;;;;;5115095;28;20240;-80
2023/03/01 03:17:58;;;;;;;9.53;9.23;;;-1.70;99.90;;;;;;5116689;28;20281;-80
2023/03/01 03:20:29;;;;;;;9.70;9.40;;;-1.70;99.90;;;;;;5111450;28;20296;-80
2023/03/01 03:23:02;;;;;;;9.47;9.17;;;-1.70;99.90;;;;;;5120223;28;20243;-80
2023/03/01 03:25:31;;;;;;;9.53;9.23;;;-1.70;99.90;;;;;;5119972;28;20248;-80
2023/03/01 03:27:59;;;;;;;9.63;9.33;;;-1.80;99.90;;;;;;5119828;28;20246;-80
2023/03/01 03:30:32;;;;;;;9.70;9.40;;;-1.80;99.90;;;;;;5120376;28;20210;-79
2023/03/01 03:33:01;;;;;;;9.43;9.13;;;-1.80;99.90;;;;;;5120298;28;20258;-79
2023/03/01 03:35:31;;;;;;;9.53;9.23;;;-1.70;99.90;;;;;;5119985;28;20214;-80
2023/03/01 03:38:15;;;;;;;9.77;9.47;;;-1.80;99.90;;;;;;5119630;28;20232;-80
2023/03/01 03:40:45;;;;;;;9.60;9.30;;;-1.80;99.90;;;;;;5119638;28;20244;-80
2023/03/01 03:43:15;;;;;;;9.43;9.13;;;-1.70;99.90;;;;;;5120220;28;20229;-79
2023/03/01 03:45:47;;;;;;;9.70;9.40;;;-1.70;99.90;;;;;;5119949;28;20225;-80
2023/03/01 03:48:15;;;;;;;9.60;9.30;;;-1.70;99.90;;;;;;5114801;27;20261;-80
2023/03/01 03:50:52;;;;;;;9.80;9.50;;;-1.60;99.90;;;;;;5117792;28;20227;-80
2023/03/01 03:53:22;;;;;;;10.10;9.80;;;-1.70;99.90;;;;;;5111071;28;20326;-80
2023/03/01 03:55:52;;;;;;;9.80;9.50;;;-1.80;99.90;;;;;;5116999;28;20242;-80
2023/03/01 03:58:21;;;;;;;9.70;9.40;;;-1.70;99.90;;;;;;5113434;28;20237;-80
2023/03/01 04:01:00;;;;;;;9.90;9.60;;;-1.70;99.90;;;;;;5117466;28;20294;-80
2023/03/01 04:03:30;;;;;;;9.70;9.40;;;-1.70;99.90;;;;;;5112273;28;20243;-80
2023/03/01 04:06:00;;;;;;;10.30;10.00;;;-1.70;99.90;;;;;;5110895;28;20244;-80
2023/03/01 04:08:29;;;;;;;10.13;9.83;;;-1.80;99.90;;;;;;5108145;28;20295;-80
2023/03/01 04:11:25;;;;;;;9.93;9.63;;;-1.80;99.90;;;;;;5107819;28;20241;-80
2023/03/01 04:13:52;;;;;;;10.07;9.77;;;-1.90;99.90;;;;;;5112079;28;20232;-80
2023/03/01 04:16:23;;;;;;;9.93;9.63;;;-1.90;99.90;;;;;;5104475;28;20234;-80
2023/03/01 04:18:50;;;;;;;10.30;10.00;;;-1.90;99.90;;;;;;5110388;28;20226;-80
2023/03/01 04:21:22;;;;;;;10.00;9.70;;;-1.90;99.90;;;;;;5110479;28;20333;-80
2023/03/01 04:23:52;;;;;;;10.20;9.90;;;-2.00;99.90;;;;;;5109678;28;20253;-80
2023/03/01 04:26:20;;;;;;;10.23;9.93;;;-1.90;99.90;;;;;;5099665;28;20241;-80
2023/03/01 04:28:50;;;;;;;9.87;9.57;;;-1.90;99.90;;;;;;5107456;28;20230;-80
2023/03/01 04:31:21;;;;;;;10.13;9.83;;;-2.00;99.90;;;;;;5098796;28;20230;-81
2023/03/01 04:33:52;;;;;;;10.10;9.80;;;-2.00;99.90;;;;;;5099352;28;20262;-80
2023/03/01 04:36:28;;;;;;;10.40;10.10;;;-2.10;99.90;;;;;;5107192;28;20249;-80
2023/03/01 04:38:56;;;;;;;9.97;9.67;;;-2.10;99.90;;;;;;5108285;28;20238;-80
2023/03/01 04:41:26;;;;;;;9.67;9.37;;;-2.10;99.90;;;;;;5107569;28;20232;-80
2023/03/01 04:43:56;;;;;;;9.90;9.60;;;-2.10;99.90;;;;;;5108063;28;20925;-80
2023/03/01 04:46:35;;;;;;;9.93;9.63;;;-2.10;99.90;;;;;;5107222;28;20258;-80
2023/03/01 04:49:03;;;;;;;9.97;9.67;;;-2.00;99.90;;;;;;5106348;28;20218;-80
2023/03/01 04:51:33;;;;;;;9.70;9.40;;;-2.00;99.90;;;;;;5106091;28;20286;-80
2023/03/01 04:54:01;;;;;;;9.73;9.43;;;-1.90;99.90;;;;;;5108124;28;20231;-80
2023/03/01 04:56:32;;;;;;;9.53;9.23;;;-1.90;99.90;;;;;;5107464;28;20239;-79
2023/03/01 04:59:05;;;;;;;10.20;9.90;;;-1.80;99.90;;;;;;5091633;28;20330;-80
2023/03/01 05:01:35;;;;;;;10.07;9.77;;;-1.70;99.90;;;;;;5108493;28;20215;-80
2023/03/01 05:04:05;;;;;;;9.70;9.40;;;-1.80;99.90;;;;;;5116416;28;20285;-80
2023/03/01 05:06:38;;;;;;;9.90;9.60;;;-1.70;99.90;;;;;;5112296;28;20272;-80
2023/03/01 05:09:07;;;;;;;9.50;9.20;;;-1.70;99.90;;;;;;5100974;28;20243;-80
2023/03/01 05:11:37;;;;;;;9.50;9.20;;;-1.70;99.90;;;;;;5107201;28;20218;-80
2023/03/01 05:14:07;;;;;;;9.57;9.27;;;-1.60;99.90;;;;;;5106072;28;20236;-80
2023/03/01 05:16:38;;;;;;;9.87;9.57;;;-1.60;99.90;;;;;;5107266;28;20233;-80
2023/03/01 05:19:11;;;;;;;9.50;9.20;;;-1.70;99.90;;;;;;5107625;28;20225;-80
2023/03/01 05:22:01;;;;;;;9.93;9.63;;;-1.80;99.90;;;;;;5109342;28;20251;-80
2023/03/01 05:24:30;;;;;;;9.93;9.63;;;-1.90;99.90;;;;;;5111484;28;20239;-79
2023/03/01 05:26:59;;;;;;;10.00;9.70;;;-1.90;99.90;;;;;;5112131;28;20271;-80
2023/03/01 05:29:30;;;;;;;9.90;9.60;;;-1.90;99.90;;;;;;5111752;28;20257;-81
2023/03/01 05:32:02;;;;;;;9.63;9.33;;;-1.90;99.90;;;;;;5105496;28;20231;-81
2023/03/01 05:34:38;;;;;;;9.47;9.17;;;-1.90;99.90;;;;;;5111706;28;20247;-81
2023/03/01 05:37:07;;;;;;;9.80;9.50;;;-2.00;99.90;;;;;;5110724;28;20239;-81
2023/03/01 05:39:36;;;;;;;9.60;9.30;;;-2.00;99.90;;;;;;5110138;28;20227;-82
2023/03/01 05:42:08;;;;;;;9.73;9.43;;;-2.00;99.90;;;;;;5109630;28;20249;-81
2023/03/01 05:44:36;;;;;;;10.40;10.10;;;-2.10;99.90;;;;;;5112374;28;20238;-81
2023/03/01 05:47:07;;;;;;;9.93;9.63;;;-2.10;99.90;;;;;;5108286;28;20239;-80
2023/03/01 05:49:34;;;;;;;10.13;9.83;;;-2.20;99.90;;;;;;5096153;28;20321;-82
2023/03/01 05:52:02;;;;;;;9.87;9.57;;;-2.10;99.90;;;;;;5102856;28;20228;-81
2023/03/01 05:54:31;;;;;;;10.50;10.20;;;-2.10;99.90;;;;;;5111130;28;20738;-81
2023/03/01 05:57:00;;;;;;;10.40;10.10;;;-2.00;99.90;;;;;;5110473;28;20230;-81
2023/03/01 05:59:27;;;;;;;9.60;9.30;;;-2.00;99.90;;;;;;5109612;28;20216;-80
2023/03/01 06:01:55;;;;;;;9.97;9.67;;;-1.90;99.90;;;;;;5101543;28;20328;-81
2023/03/01 06:04:23;;;;;;;10.37;10.07;;;-2.00;99.90;;;;;;5101983;28;20237;-81
2023/03/01 06:06:51;;;;;;;10.33;10.03;;;-2.10;99.90;;;;;;5108786;28;20307;-81
2023/03/01 06:09:25;;;;;;;10.20;9.90;;;-2.10;99.90;;;;;;5101802;28;20250;-81
2023/03/01 06:11:53;;;;;;;10.03;9.73;;;-2.10;99.90;;;;;;5108549;28;20233;-81
2023/03/01 06:14:21;;;;;;;9.77;9.47;;;-2.20;99.90;;;;;;5108296;28;20321;-82
2023/03/01 06:16:50;;;;;;;10.00;9.70;;;-2.20;99.90;;;;;;5108410;28;20230;-81
2023/03/01 06:19:20;;;;;;;9.97;9.67;;;-2.20;99.90;;;;;;5099865;28;20299;-81
2023/03/01 06:21:52;;;;;;;9.60;9.30;;;-2.30;99.90;;;;;;5099483;28;20336;-81
2023/03/01 06:24:19;;;;;;;9.90;9.60;;;-2.20;99.90;;;;;;5107452;28;20250;-81
2023/03/01 06:26:48;;;;;;;9.97;9.67;;;-2.20;99.90;;;;;;5109237;28;20261;-82
2023/03/01 06:29:18;;;;;;;9.77;9.47;;;-2.20;99.90;;;;;;5108706;28;20258;-81
2023/03/01 06:31:46;;;;;;;10.23;9.93;;;-2.10;99.90;;;;;;5097600;28;21023;-82
2023/03/01 06:34:18;;;;;;;10.30;10.00;;;-2.10;99.90;;;;;;5106518;28;20293;-82
2023/03/01 06:36:49;;;;;;;10.00;9.70;;;-2.00;99.90;;;;;;5106328;28;20227;-81
2023/03/01 06:39:17;;;;;;;10.07;9.77;;;-1.90;99.90;;;;;;5106945;28;20260;-81
2023/03/01 06:41:45;;;;;;;9.90;9.60;;;-1.80;99.90;;;;;;5100028;28;20269;-80
2023/03/01 06:44:14;;;;;;;10.00;9.70;;;-1.70;99.90;;;;;;5111743;28;20292;-80
2023/03/01 06:46:44;;;;;;;9.90;9.60;;;-1.60;99.90;;;;;;5110897;28;20272;-79
2023/03/01 06:49:13;;;;;;;9.70;9.40;;;-1.50;99.90;;;;;;5106331;28;20243;-80
2023/03/01 06:51:43;;;;;;;9.93;9.63;;;-1.40;99.90;;;;;;5102756;28;20230;-80
2023/03/01 06:54:13;;;;;;;9.60;9.30;;;-1.30;99.90;;;;;;5100691;28;20294;-80
2023/03/01 06:56:42;;;;;;;9.70;9.40;;;-1.30;99.90;;;;;;5114756;28;20239;-80
2023/03/01 06:59:11;;;;;;;9.60;9.30;;;-1.30;99.90;;;;;;5116218;28;20229;-81
2023/03/01 07:01:40;;;;;;;9.50;9.20;;;-1.30;99.90;;;;;;5115717;28;20235;-80
2023/03/01 07:04:10;;;;;;;9.73;9.43;;;-1.30;99.90;;;;;;5116240;28;20250;-80
2023/03/01 07:06:38;;;;;;;9.80;9.50;;;-1.20;99.90;;;;;;5115361;28;20259;-81
2023/03/01 07:09:09;;;;;;;10.13;9.83;;;-1.20;99.90;;;;;;5116214;28;20221;-80
2023/03/01 07:11:38;;;;;;;10.07;9.77;;;-1.00;99.90;;;;;;5117244;28;20255;-80
2023/03/01 07:14:07;;;;;;;9.90;9.60;;;-0.80;99.90;;;;;;5116162;28;20232;-80
2023/03/01 07:16:37;;;;;;;10.40;10.10;;;-0.60;99.90;;;;;;5117876;28;20252;-80
2023/03/01 07:19:05;;;;;;;9.90;9.60;;;-0.50;99.90;;;;;;5119996;28;20253;-80
2023/03/01 07:21:38;;;;;;;10.00;9.70;;;-0.40;99.90;;;;;;5118739;28;20229;-80
2023/03/01 07:24:07;;;;;;;10.00;9.70;;;-0.50;99.90;;;;;;5114188;28;20240;-79
2023/03/01 07:26:35;;;;;;;10.10;9.80;;;-0.50;99.90;;;;;;5113589;28;20236;-81
2023/03/01 07:29:14;;;;;;;10.20;9.90;;;-0.50;99.90;;;;;;5104168;28;20238;-80
2023/03/01 07:31:43;;;;;;;10.20;9.90;;;-0.40;99.90;;;;;;5111272;28;20239;-80
2023/03/01 07:34:12;;;;;;;10.37;10.07;;;-0.40;99.90;;;;;;5111594;28;20262;-81
2023/03/01 07:36:43;;;;;;;10.37;10.07;;;-0.30;99.90;;;;;;5102918;28;20231;-80
2023/03/01 07:39:11;;;;;;;10.10;9.80;;;-0.40;99.90;;;;;;5108019;28;20226;-80
2023/03/01 07:41:40;;;;;;;10.10;9.80;;;-0.30;99.90;;;;;;5095647;28;20221;-81
2023/03/01 07:44:17;;;;;;;10.10;9.80;;;-0.20;99.90;;;;;;5092573;28;20326;-80
2023/03/01 07:46:47;;;;;;;10.17;9.87;;;-0.20;99.90;;;;;;5088608;28;20234;-80
2023/03/01 07:49:17;;;;;;;10.20;9.90;;;-0.10;99.90;;;;;;5089122;28;20229;-80
2023/03/01 07:51:48;;;;;;;10.13;9.83;;;0.10;99.90;;;;;;5088877;28;20272;-80
2023/03/01 07:54:16;;;;;;;10.03;9.73;;;0.20;99.90;;;;;;5088548;28;20320;-80
2023/03/01 07:56:49;;;;;;;9.77;9.47;;;0.30;99.90;;;;;;5094649;28;20218;-80
2023/03/01 07:59:20;;;;;;;9.87;9.57;;;0.40;99.90;;;;;;5095536;28;20289;-80
2023/03/01 08:01:47;;;;;;;9.60;9.30;;;0.50;99.90;;;;;;5093974;28;20246;-80
2023/03/01 08:04:16;;;;;;;9.80;9.50;;;0.60;99.90;;;;;;5091274;28;20293;-80
2023/03/01 08:06:46;;;;;;;10.00;9.70;;;0.60;99.90;;;;;;5089548;28;20234;-81
2023/03/01 08:09:15;;;;;;;10.03;9.73;;;0.70;99.90;;;;;;5090375;28;20222;-81
2023/03/01 08:11:44;;;;;;;10.07;9.77;;;0.80;99.90;;;;;;5088958;28;20325;-81
2023/03/01 08:14:13;;;;;;;10.17;9.87;;;0.90;99.90;;;;;;5089413;28;20230;-81
2023/03/01 08:16:52;;;;;;;10.20;9.90;;;1.10;99.90;;;;;;5088930;28;20230;-81
2023/03/01 08:19:20;;;;;;;10.17;9.87;;;1.20;99.90;;;;;;5088595;28;20265;-81
2023/03/01 08:21:48;;;;;;;10.10;9.80;;;1.20;99.90;;;;;;5088286;28;20234;-81
2023/03/01 08:24:16;;;;;;;10.10;9.80;;;1.20;99.90;;;;;;5088408;28;20234;-81
2023/03/01 08:26:43;;;;;;;9.93;9.63;;;1.30;99.90;;;;;;5088183;28;20294;-79
2023/03/01 08:29:11;;;;;;;10.20;9.90;;;1.40;99.90;;;;;;5088222;28;20231;-82
2023/03/01 08:31:41;;;;;;;10.17;9.87;;;1.50;99.90;;;;;;5089545;28;20340;-80
2023/03/01 08:34:15;;;;;;;10.40;10.10;;;1.50;99.90;;;;;;5089425;28;20230;-80
2023/03/01 08:36:45;;;;;;;10.20;9.90;;;1.60;99.90;;;;;;5092636;28;20238;-80
2023/03/01 08:39:16;;;;;;;9.97;9.67;;;1.80;99.90;;;;;;5092570;28;20321;-80
2023/03/01 08:41:46;;;;;;;10.20;9.90;;;1.90;99.90;;;;;;5090710;28;20289;-80
2023/03/01 08:44:16;;;;;;;9.90;9.60;;;1.90;99.90;;;;;;5098482;28;20280;-80
2023/03/01 08:46:46;;;;;;;9.67;9.37;;;2.00;99.90;;;;;;5110334;28;20344;-80
2023/03/01 08:49:17;;;;;;;9.83;9.53;;;2.20;99.90;;;;;;5110169;28;20242;-79
2023/03/01 08:51:46;;;;;;;9.87;9.57;;;2.40;99.90;;;;;;5105366;28;20229;-78
2023/03/01 08:54:15;;;;;;;9.60;9.30;;;2.50;99.90;;;;;;5106497;28;20245;-78
2023/03/01 08:56:44;;;;;;;9.40;9.10;;;2.60;99.90;;;;;;5107835;28;20229;-79
2023/03/01 08:59:12;;;;;;;9.57;9.27;;;2.70;99.90;;;;;;5107851;28;20276;-78
2023/03/01 09:01:43;;;;;;;9.80;9.50;;;2.70;99.90;;;;;;5108026;28;20252;-78
2023/03/01 09:04:12;;;;;;;9.30;9.00;;;2.80;99.90;;;;;;5109062;28;20233;-78
2023/03/01 09:06:40;;;;;;;9.87;9.57;;;2.90;99.90;;;;;;5108899;28;20252;-78
2023/03/01 09:09:09;;;;;;;9.60;9.30;;;3.00;99.90;;;;;;5106869;28;20305;-78
2023/03/01 09:11:37;;;;;;;9.40;9.10;;;3.20;99.90;;;;;;5105637;28;20233;-79
2023/03/01 09:14:09;;;;;;;9.83;9.53;;;3.50;99.90;;;;;;5106592;28;20233;-79
2023/03/01 09:16:36;;;;;;;10.03;9.73;;;3.80;99.90;;;;;;5106394;28;20221;-79
2023/03/01 09:19:06;;;;;;;10.00;9.70;;;4.20;99.90;;;;;;5104684;28;20308;-79
2023/03/01 09:21:35;;;;;;;10.20;9.90;;;4.10;99.90;;;;;;5105878;28;20237;-79
2023/03/01 09:24:02;;;;;;;10.30;10.00;;;4.30;99.90;;;;;;5106530;28;20240;-78
2023/03/01 09:26:29;;;;;;;10.20;9.90;;;4.40;99.90;;;;;;5102153;28;20234;-79
2023/03/01 09:28:58;;;;;;;9.57;9.27;;;4.50;99.90;;;;;;5102769;28;20275;-78
2023/03/01 09:31:26;;;;;;;9.80;9.50;;;4.60;99.90;;;;;;5105401;28;20229;-80
2023/03/01 09:33:55;;;;;;;10.00;9.70;;;4.70;99.90;;;;;;5101292;28;20320;-77
2023/03/01 09:36:25;;;;;;;9.90;9.60;;;5.00;99.90;;;;;;5104340;28;20300;-78
2023/03/01 09:38:55;;;;;;;10.03;9.73;;;5.10;99.90;;;;;;5108677;28;20229;-78
2023/03/01 09:41:39;;;;;;;9.63;9.33;;;5.10;99.90;;;;;;5108294;28;20281;-78
2023/03/01 09:44:29;;;;;;;9.60;9.30;;;5.00;99.90;;;;;;5099860;28;20229;-77
2023/03/01 09:46:58;;;;;;;9.90;9.60;;;5.20;99.90;;;;;;5105985;28;20232;-78
2023/03/01 09:49:30;;;;;;;9.73;9.43;;;5.40;99.90;;;;;;5104701;28;20310;-77
2023/03/01 09:52:02;;;;;;;9.87;9.57;;;5.60;99.90;;;;;;5103404;28;20750;-77
2023/03/01 09:54:31;;;;;;;9.50;9.20;;;5.50;99.90;;;;;;5101346;28;20264;-78
2023/03/01 09:57:19;;;;;;;9.80;9.50;;;5.60;99.90;;;;;;5103822;28;20240;-78
2023/03/01 10:00:04;;;;;;;9.70;9.40;;;5.70;99.90;;;;;;5095465;28;20336;-77
2023/03/01 10:02:40;;;;;;;10.07;9.77;;;5.80;99.90;;;;;;5100375;28;20225;-80
2023/03/01 10:05:28;;;;;;;10.20;9.90;;;5.90;99.90;;;;;;5104359;28;20229;-79
2023/03/01 10:08:15;;;;;;;10.10;9.80;;;6.10;99.90;;;;;;5108934;28;20297;-79
2023/03/01 10:10:49;;;;;;;10.20;9.90;;;6.10;99.90;;;;;;5106841;28;20329;-78
2023/03/01 10:13:22;;;;;;;10.00;9.70;;;6.20;99.90;;;;;;5108601;28;20223;-78
2023/03/01 10:15:55;;;;;;;10.23;9.93;;;6.40;99.90;;;;;;5103767;28;20244;-78
2023/03/01 10:18:28;;;;;;;10.00;9.70;;;6.80;99.90;;;;;;5104720;28;20252;-78
2023/03/01 10:21:00;;;;;;;10.23;9.93;;;7.00;99.90;;;;;;5102830;28;20241;-78
2023/03/01 10:23:31;;;;;;;10.00;9.70;;;7.00;99.90;;;;;;5102746;28;20233;-77
2023/03/01 10:26:22;;;;;;;10.07;9.77;;;7.10;99.90;;;;;;5101696;28;20231;-77
2023/03/01 10:29:02;;;;;;;10.00;9.70;;;7.30;99.90;;;;;;5103130;28;20225;-77
2023/03/01 10:31:42;;;;;;;9.90;9.60;;;7.30;99.90;;;;;;5104668;28;20694;-77
2023/03/01 10:34:14;;;;;;;9.83;9.53;;;7.40;99.90;;;;;;5110003;28;20259;-78
2023/03/01 10:36:44;;;;;;;9.90;9.60;;;7.60;99.90;;;;;;5114428;28;20285;-77
2023/03/01 10:39:18;;;;;;;10.00;9.70;;;7.80;99.90;;;;;;5110569;28;20225;-78
2023/03/01 10:42:07;;;;;;;9.60;9.30;;;7.60;99.90;;;;;;5115948;28;20229;-80
2023/03/01 10:44:46;;;;;;;9.90;9.60;;;7.60;99.90;;;;;;5100975;28;20225;-78
2023/03/01 10:47:21;;;;;;;10.00;9.70;;;8.60;99.90;;;;;;5101022;28;20260;-80
2023/03/01 10:50:01;;;;;;;9.80;9.50;;;9.10;99.90;;;;;;5101531;28;20271;-76
2023/03/01 10:52:38;;;;;;;9.70;9.40;;;9.40;99.90;;;;;;5105358;28;20248;-80
2023/03/01 10:55:28;;;;;;;9.87;9.57;;;9.10;99.90;;;;;;5110352;28;20316;-80
2023/03/01 10:58:21;;;;;;;10.50;10.20;;;9.00;99.90;;;;;;5109904;28;20217;-81
2023/03/01 11:00:53;;;;;;;10.23;9.93;;;9.10;99.90;;;;;;5109521;28;20241;-80
2023/03/01 11:03:30;;;;;;;10.37;10.07;;;9.20;99.90;;;;;;5109240;28;20235;-80
2023/03/01 11:06:07;;;;;;;10.60;10.30;;;9.40;99.90;;;;;;5104608;28;20221;-78
2023/03/01 11:08:38;;;;;;;10.50;10.20;;;9.50;99.90;;;;;;5108591;28;20304;-80
2023/03/01 11:11:16;;;;;;;10.60;10.30;;;9.70;99.90;;;;;;5106453;28;20237;-78
2023/03/01 11:14:01;;;;;;;10.33;10.03;;;10.10;99.90;;;;;;5106553;28;20221;-78
2023/03/01 11:16:37;;;;;;;10.47;10.17;;;10.30;99.90;;;;;;5107772;28;20222;-79
2023/03/01 11:19:27;;;;;;;10.60;10.30;;;10.40;99.90;;;;;;5107382;28;20229;-79
2023/03/01 11:22:04;;;;;;;10.77;10.47;;;10.20;99.90;;;;;;5105073;28;20264;-79
2023/03/01 11:24:52;;;;;;;10.70;10.40;;;10.50;99.90;;;;;;5110276;28;20321;-78
2023/03/01 11:27:24;;;;;;;10.33;10.03;;;10.10;99.90;;;;;;5106793;28;20316;-78
2023/03/01 11:29:58;;;;;;;10.53;10.23;;;10.10;99.90;;;;;;5107939;28;20233;-78
2023/03/01 11:32:29;;;;;;;10.20;9.90;;;10.00;99.90;;;;;;5108396;28;21036;-78
2023/03/01 11:35:02;;;;;;;10.00;9.70;;;10.00;99.90;;;;;;5105928;28;20283;-79
2023/03/01 11:37:37;;;;;;;9.80;9.50;;;10.30;99.90;;;;;;5105708;28;20317;-79
2023/03/01 11:40:15;;;;;;;10.03;9.73;;;10.40;99.90;;;;;;5104153;28;20229;-79
2023/03/01 11:42:58;;;;;;;10.20;9.90;;;10.60;99.90;;;;;;5104464;28;20225;-78
2023/03/01 11:45:35;;;;;;;9.90;9.60;;;10.40;99.90;;;;;;5107404;28;20222;-78
2023/03/01 11:48:38;;;;;;;10.57;10.27;;;10.50;99.90;;;;;;5107996;28;20229;-78
2023/03/01 11:51:16;;;;;;;10.60;10.30;;;10.70;99.90;;;;;;5106040;28;20271;-79
2023/03/01 11:54:01;;;;;;;10.80;10.50;;;10.70;99.90;;;;;;5104304;28;20225;-78
2023/03/01 11:56:35;;;;;;;10.53;10.23;;;10.80;99.90;;;;;;5108277;28;20326;-78
2023/03/01 11:59:38;;;;;;;10.60;10.30;;;11.20;99.90;;;;;;5112237;28;20311;-79
2023/03/01 12:02:42;;;;;;;10.40;10.10;;;11.90;99.90;;;;;;5108754;28;20221;-79
2023/03/01 12:05:58;;;;;;;10.20;9.90;;;11.60;99.90;;;;;;5106800;28;20239;-79
2023/03/01 12:08:33;;;;;;;10.30;10.00;;;11.00;99.90;;;;;;5111367;28;20269;-78
2023/03/01 12:11:13;;;;;;;10.10;9.80;;;11.00;99.90;;;;;;5112649;28;20316;-79
2023/03/01 12:14:25;;;;;;;10.73;10.43;;;11.30;99.90;;;;;;5113134;28;20314;-79
2023/03/01 12:17:36;;;;;;;10.63;10.33;;;11.50;99.90;;;;;;5111026;28;20237;-78
2023/03/01 12:20:19;;;;;;;10.67;10.37;;;11.80;99.90;;;;;;5107109;28;20227;-79
2023/03/01 12:23:04;;;;;;;10.90;10.60;;;11.70;99.90;;;;;;5110576;28;20231;-79
2023/03/01 12:25:38;;;;;;;10.90;10.60;;;12.10;99.90;;;;;;5107815;28;20256;-78
2023/03/01 12:28:39;;;;;;;11.00;10.70;;;12.20;99.90;;;;;;5104159;28;20239;-77
2023/03/01 12:31:51;;;;;;;10.60;10.30;;;11.90;99.90;;;;;;5106730;28;20337;-78
2023/03/01 12:34:49;;;;;;;10.47;10.17;;;12.00;99.90;;;;;;5112059;28;20226;-78
2023/03/01 12:37:43;;;;;;;10.50;10.20;;;12.40;99.90;;;;;;5118217;28;20223;-77
2023/03/01 12:40:45;;;;;;;10.53;10.23;;;12.70;99.90;;;;;;5111563;28;20289;-77
2023/03/01 12:43:32;;;;;;;10.63;10.33;;;12.80;99.90;;;;;;5108394;28;20221;-78
2023/03/01 12:46:25;;;;;;;10.90;10.60;;;12.70;99.90;;;;;;5117007;28;20225;-80
2023/03/01 12:49:08;;;;;;;10.60;10.30;;;13.00;99.90;;;;;;5119523;28;20248;-78
2023/03/01 12:51:39;;;;;;;10.50;10.20;;;13.00;99.90;;;;;;5119675;27;20221;-78
2023/03/01 12:54:27;;;;;;;10.80;10.50;;;12.80;99.90;;;;;;5118798;28;20249;-78
2023/03/01 12:56:56;;;;;;;10.50;10.20;;;13.10;99.90;;;;;;5119171;28;20283;-78
2023/03/01 12:59:32;;;;;;;10.60;10.30;;;13.40;99.90;;;;;;5119160;28;20261;-80
2023/03/01 13:02:10;;;;;;;10.77;10.47;;;13.60;99.90;;;;;;5118918;28;20241;-78
2023/03/01 13:04:55;;;;;;;10.30;10.00;;;13.90;99.90;;;;;;5117526;27;20221;-79
2023/03/01 13:07:32;;;;;;;10.40;10.10;;;13.20;99.90;;;;;;5119178;28;20213;-79
2023/03/01 13:10:22;;;;;;;10.63;10.33;;;13.30;99.90;;;;;;5119461;28;20323;-79
2023/03/01 13:13:10;;;;;;;10.70;10.40;;;13.60;99.90;;;;;;5118460;27;20257;-79